Ryl'sk, Russia
Current Conditions -  °F | °C
As of 9:00 AM on Monday 22 Dec 2014 (Local Time) from UUOB Reporting Station
Broken Clouds Broken Clouds  
Wind Chill: 24°   Ceiling: 3000
Heat Index: 32°   Visibility: 6mi
Dew Point: 30°   Wind: 9mph
Humidity: 93%   Direction: 240°WSW
Pressure: 29.77"   Gusts: NA
Location:  51.36°N, 34.4°E
Report Text: UUOB 220600Z 24004MPS 9999 BKN030 00/M01 Q1008 29290057 NOSIG
Loading
Personal Weather Stations






























Interactive Weather Map New forecast layout! Learn more

10-Day Weather Forecast

Advertisements
Track Severe Weather on mobile